Time;durP1;ratioP1;P1;durP2;ratioP2;P2;SDS_P1;SDS_P2;PMS_P1;PMS_P2;Temp;Humidity;BMP_temperature;BMP_pressure;BME280_temperature;BME280_humidity;BME280_pressure;Samples;Min_cycle;Max_cycle;Signal;HPM_P1;HPM_P2
2022/08/25 00:00:27;;;;;;;;;;;;;;;23.54;62.71;100991.72;4413428;32;20249;-69
2022/08/25 00:02:53;;;;;;;;;;;;;;;23.59;62.43;100998.03;4415110;32;20001;-69
2022/08/25 00:05:19;;;;;;;;;;;;;;;23.51;61.82;100992.78;4417591;32;20225;-69
2022/08/25 00:07:44;;;;;;;;;;;;;;;23.51;62.88;100987.03;4413635;32;20245;-69
2022/08/25 00:10:09;;;;;;;;;;;;;;;23.32;61.98;100993.84;4415620;32;19957;-69
2022/08/25 00:12:35;;;;;;;;;;;;;;;23.53;62.27;100998.78;4418089;32;20337;-69
2022/08/25 00:15:01;;;;;;;;;;;;;;;23.51;62.24;101012.12;4413648;32;19994;-69
2022/08/25 00:17:27;;;;;;;;;;;;;;;23.43;61.74;101011.84;4417182;32;20022;-69
2022/08/25 00:19:52;;;;;;;;;;;;;;;23.45;62.09;101011.34;4417370;32;20299;-69
2022/08/25 00:22:18;;;;;;;;;;;;;;;23.40;61.89;101027.25;4415724;32;20291;-69
2022/08/25 00:24:44;;;;;;;;;;;;;;;23.49;61.88;101026.22;4416471;32;20009;-69
2022/08/25 00:27:11;;;;;;;;;;;;;;;23.55;61.13;101018.38;4414314;32;19977;-69
2022/08/25 00:29:37;;;;;;;;;;;;;;;23.49;61.51;101014.72;4412708;32;20008;-69
2022/08/25 00:32:04;;;;;;;;;;;;;;;23.55;61.51;101009.75;4417085;32;19980;-69
2022/08/25 00:34:33;;;;;;;;;;;;;;;23.45;62.01;101019.97;4414069;32;19977;-69
2022/08/25 00:36:58;;;;;;;;;;;;;;;23.38;62.47;101018.38;4413533;32;19961;-69
2022/08/25 00:39:24;;;;;;;;;;;;;;;23.45;62.32;101019.97;4414165;32;20020;-67
2022/08/25 00:41:51;;;;;;;;;;;;;;;23.26;62.94;101008.19;4416536;32;20026;-69
2022/08/25 00:44:17;;;;;;;;;;;;;;;23.35;62.25;101010.78;4416235;32;19990;-69
2022/08/25 00:46:46;;;;;;;;;;;;;;;23.32;62.94;101013.94;4414462;32;20026;-69
2022/08/25 00:49:13;;;;;;;;;;;;;;;23.34;62.34;101012.09;4413035;32;20413;-69
2022/08/25 00:51:41;;;;;;;;;;;;;;;23.37;61.62;101013.94;4415066;32;19996;-69
2022/08/25 00:54:10;;;;;;;;;;;;;;;23.10;61.59;101014.66;4414603;32;20005;-69
2022/08/25 00:56:35;;;;;;;;;;;;;;;23.21;61.35;101006.06;4420654;32;19987;-69
2022/08/25 00:59:01;;;;;;;;;;;;;;;23.11;60.77;100995.34;4417033;32;20516;-69
2022/08/25 01:01:29;;;;;;;;;;;;;;;23.07;60.75;100998.47;4417386;32;20379;-69
2022/08/25 01:03:54;;;;;;;;;;;;;;;22.95;60.31;100999.75;4419511;32;20535;-69
2022/08/25 01:06:20;;;;;;;;;;;;;;;22.99;59.77;101002.38;4416497;32;19958;-69
2022/08/25 01:08:46;;;;;;;;;;;;;;;22.92;59.67;100997.13;4419598;32;19964;-69
2022/08/25 01:11:12;;;;;;;;;;;;;;;22.80;60.71;100996.28;4418487;32;20024;-69
2022/08/25 01:13:41;;;;;;;;;;;;;;;22.71;60.27;100993.69;4421866;32;20638;-69
2022/08/25 01:16:07;;;;;;;;;;;;;;;22.62;60.51;100999.66;4415167;32;19965;-69
2022/08/25 01:21:26;;;;;;;;;;;;;;;22.74;60.81;101001.22;3950904;32;15794329;-69
2022/08/25 01:23:51;;;;;;;;;;;;;;;22.74;60.81;101001.22;4432123;32;19973;-69
2022/08/25 01:26:20;;;;;;;;;;;;;;;22.31;61.67;101004.69;4427960;32;20073;-69
2022/08/25 01:31:32;;;;;;;;;;;;;;;22.32;62.03;101003.37;4432103;32;19958;-69
2022/08/25 01:33:57;;;;;;;;;;;;;;;22.28;62.18;101014.31;4426453;32;20221;-69
2022/08/25 01:36:24;;;;;;;;;;;;;;;22.19;62.64;101009.59;4427988;32;20005;-69
2022/08/25 01:38:50;;;;;;;;;;;;;;;22.27;62.62;101016.37;4427495;32;19949;-69
2022/08/25 01:41:20;;;;;;;;;;;;;;;22.34;62.63;101010.19;4429176;32;19972;-69
2022/08/25 01:43:45;;;;;;;;;;;;;;;22.37;62.89;101012.00;4426058;32;19965;-69
2022/08/25 01:46:11;;;;;;;;;;;;;;;22.35;62.82;101002.34;4425027;32;19986;-69
2022/08/25 01:48:37;;;;;;;;;;;;;;;22.36;62.87;101003.94;4428138;32;20042;-69
2022/08/25 01:51:03;;;;;;;;;;;;;;;22.30;63.34;100998.16;4427355;32;19997;-69
2022/08/25 01:53:29;;;;;;;;;;;;;;;22.18;63.87;100995.75;4429639;32;20088;-69
2022/08/25 01:56:00;;;;;;;;;;;;;;;22.20;63.67;100996.00;4431136;32;19980;-69
2022/08/25 01:58:28;;;;;;;;;;;;;;;22.13;63.88;101000.16;4430956;32;20240;-69
2022/08/25 02:00:55;;;;;;;;;;;;;;;22.01;64.92;100995.66;4426769;32;19958;-69
2022/08/25 02:03:23;;;;;;;;;;;;;;;22.10;64.72;101003.25;4450483;32;19989;-68
2022/08/25 02:05:49;;;;;;;;;;;;;;;22.18;64.45;101013.72;4452826;32;19945;-68
2022/08/25 02:08:15;;;;;;;;;;;;;;;22.13;64.77;101011.62;4450067;32;20734;-68
2022/08/25 02:10:41;;;;;;;;;;;;;;;22.16;64.62;101013.47;4449935;32;19977;-68
2022/08/25 02:13:07;;;;;;;;;;;;;;;22.09;64.76;101010.31;4449451;32;19998;-68
2022/08/25 02:15:33;;;;;;;;;;;;;;;22.08;64.87;101008.72;4451324;32;19999;-68
2022/08/25 02:17:58;;;;;;;;;;;;;;;22.12;64.34;101004.31;4448782;32;20005;-68
2022/08/25 02:20:25;;;;;;;;;;;;;;;22.15;63.82;100996.78;4450605;32;19992;-68
2022/08/25 02:22:50;;;;;;;;;;;;;;;22.25;63.67;100989.53;4449992;32;19978;-68
2022/08/25 02:25:17;;;;;;;;;;;;;;;22.28;63.66;101002.84;4450981;32;19938;-67
2022/08/25 02:27:43;;;;;;;;;;;;;;;22.33;63.11;101005.72;4446859;32;19949;-67
2022/08/25 02:30:09;;;;;;;;;;;;;;;22.42;62.89;100996.91;4446534;32;19941;-67
2022/08/25 02:32:35;;;;;;;;;;;;;;;22.45;61.96;100987.28;4440238;32;19937;-67
2022/08/25 02:35:01;;;;;;;;;;;;;;;22.47;61.42;100992.50;4441623;32;19948;-67
2022/08/25 02:37:26;;;;;;;;;;;;;;;22.39;61.29;100994.28;4438095;32;19937;-67
2022/08/25 02:39:52;;;;;;;;;;;;;;;22.41;60.74;101001.09;4436507;32;19961;-67
2022/08/25 02:42:17;;;;;;;;;;;;;;;22.50;60.14;100995.16;4440498;32;19971;-67
2022/08/25 02:44:43;;;;;;;;;;;;;;;22.52;60.15;100997.53;4438348;32;19956;-67
2022/08/25 02:47:08;;;;;;;;;;;;;;;22.59;60.04;101000.69;4436721;32;20003;-67
2022/08/25 02:49:34;;;;;;;;;;;;;;;22.61;59.81;100995.19;4437596;32;20148;-67
2022/08/25 02:51:59;;;;;;;;;;;;;;;22.60;59.42;100993.63;4441947;32;20016;-67
2022/08/25 02:54:26;;;;;;;;;;;;;;;22.57;59.59;100988.12;4439413;32;20160;-67
2022/08/25 02:56:51;;;;;;;;;;;;;;;22.56;59.57;100998.06;4439984;32;19961;-67
2022/08/25 02:59:18;;;;;;;;;;;;;;;22.52;59.57;101001.16;4438147;32;19971;-67
2022/08/25 03:01:44;;;;;;;;;;;;;;;22.55;58.84;100990.75;4436472;32;19922;-66
2022/08/25 03:04:10;;;;;;;;;;;;;;;22.52;59.08;100997.53;4438396;32;19977;-67
2022/08/25 03:06:35;;;;;;;;;;;;;;;22.53;58.92;100991.28;4437623;32;19992;-67
2022/08/25 03:09:02;;;;;;;;;;;;;;;22.52;58.85;100975.34;4440191;32;19969;-67
2022/08/25 03:11:27;;;;;;;;;;;;;;;22.50;58.64;100974.28;4440668;32;19940;-67
2022/08/25 03:13:53;;;;;;;;;;;;;;;22.48;58.55;100974.00;4439132;32;20584;-67
2022/08/25 03:16:20;;;;;;;;;;;;;;;22.51;58.32;100964.38;4438301;32;19934;-67
2022/08/25 03:18:46;;;;;;;;;;;;;;;22.50;58.58;100969.34;4437093;32;19938;-68
2022/08/25 03:21:12;;;;;;;;;;;;;;;22.52;58.14;100969.59;4441389;32;19958;-67
2022/08/25 03:23:38;;;;;;;;;;;;;;;22.48;58.13;100956.78;4440127;32;19969;-67
2022/08/25 03:28:49;;;;;;;;;;;;;;;22.45;57.95;100957.81;4437638;32;20003;-67
2022/08/25 03:31:15;;;;;;;;;;;;;;;22.42;57.86;100947.38;4437997;32;19929;-67
2022/08/25 03:33:40;;;;;;;;;;;;;;;22.33;58.38;100948.38;4436599;32;20679;-67
2022/08/25 03:36:07;;;;;;;;;;;;;;;22.29;58.41;100950.72;4438231;32;20441;-67
2022/08/25 03:38:33;;;;;;;;;;;;;;;22.11;59.02;100948.28;4438437;32;19922;-67
2022/08/25 03:40:58;;;;;;;;;;;;;;;22.07;59.23;100956.34;4437399;32;20019;-67
2022/08/25 03:43:24;;;;;;;;;;;;;;;22.07;59.57;100969.88;4438878;32;19926;-67
2022/08/25 03:45:49;;;;;;;;;;;;;;;22.04;59.71;100973.78;4438830;32;19922;-67
2022/08/25 03:48:15;;;;;;;;;;;;;;;22.11;59.36;100974.09;4438426;32;20331;-67
2022/08/25 03:50:45;;;;;;;;;;;;;;;22.15;59.43;100971.75;4436834;32;19969;-67
2022/08/25 03:53:11;;;;;;;;;;;;;;;22.11;59.71;100973.28;4438448;32;20004;-67
2022/08/25 03:55:37;;;;;;;;;;;;;;;22.11;59.79;100974.09;4438143;32;19930;-67
2022/08/25 03:58:02;;;;;;;;;;;;;;;22.09;59.32;100961.56;4438520;32;20010;-67
2022/08/25 04:00:30;;;;;;;;;;;;;;;22.09;59.72;100970.94;4435695;32;19946;-67
2022/08/25 04:02:55;;;;;;;;;;;;;;;22.15;59.68;100976.72;4436839;32;19942;-67
2022/08/25 04:05:24;;;;;;;;;;;;;;;22.20;58.85;100973.06;4436372;32;20228;-68
2022/08/25 04:07:50;;;;;;;;;;;;;;;22.25;58.74;100966.59;4441085;32;19969;-67
2022/08/25 04:10:15;;;;;;;;;;;;;;;22.23;59.02;100958.50;4440355;32;19930;-67
2022/08/25 04:12:41;;;;;;;;;;;;;;;22.31;58.66;100955.94;4437670;32;20090;-68
2022/08/25 04:15:11;;;;;;;;;;;;;;;22.31;58.50;100958.81;4437247;32;20000;-68
2022/08/25 04:17:38;;;;;;;;;;;;;;;22.28;58.56;100952.03;4435189;32;19938;-67
2022/08/25 04:20:05;;;;;;;;;;;;;;;22.37;58.28;100948.16;4437344;32;19938;-67
2022/08/25 04:22:31;;;;;;;;;;;;;;;22.29;58.49;100942.13;4421059;32;20003;-67
2022/08/25 04:24:58;;;;;;;;;;;;;;;22.36;58.28;100929.38;4437706;32;19979;-67
2022/08/25 04:27:23;;;;;;;;;;;;;;;22.42;57.90;100927.28;4435947;32;20604;-67
2022/08/25 04:29:49;;;;;;;;;;;;;;;22.35;57.92;100927.78;4436887;32;19930;-67
2022/08/25 04:32:17;;;;;;;;;;;;;;;22.08;58.47;100928.44;4436389;32;19969;-67
2022/08/25 04:34:42;;;;;;;;;;;;;;;22.19;58.53;100934.25;4435736;32;20082;-67
2022/08/25 04:37:08;;;;;;;;;;;;;;;21.97;59.03;100939.88;4439513;32;20003;-68
2022/08/25 04:39:33;;;;;;;;;;;;;;;22.06;58.63;100931.84;4436198;32;20001;-67
2022/08/25 04:41:59;;;;;;;;;;;;;;;22.05;58.64;100929.47;4437150;32;20131;-67
2022/08/25 04:44:34;;;;;;;;;;;;;;;22.11;59.03;100936.03;4439251;32;20070;-67
2022/08/25 04:46:59;;;;;;;;;;;;;;;22.02;59.22;100936.25;4437407;32;19922;-67
2022/08/25 04:49:25;;;;;;;;;;;;;;;22.23;58.68;100944.19;4423362;32;19982;-67
2022/08/25 04:51:51;;;;;;;;;;;;;;;22.19;58.79;100951.44;4439969;32;19971;-67
2022/08/25 04:54:20;;;;;;;;;;;;;;;22.27;58.55;100938.22;4436936;32;19965;-67
2022/08/25 04:56:46;;;;;;;;;;;;;;;22.25;58.76;100933.00;4439178;32;19975;-67
2022/08/25 04:59:12;;;;;;;;;;;;;;;22.30;58.43;100932.22;4435732;32;19969;-67
2022/08/25 05:01:38;;;;;;;;;;;;;;;22.23;58.88;100938.44;4437712;32;19949;-67
2022/08/25 05:04:05;;;;;;;;;;;;;;;22.32;59.28;100943.16;4437706;32;19977;-67
2022/08/25 05:06:31;;;;;;;;;;;;;;;22.36;59.43;100943.72;4438655;32;20068;-67
2022/08/25 05:08:58;;;;;;;;;;;;;;;22.30;59.91;100958.00;4439865;32;19949;-67
2022/08/25 05:11:24;;;;;;;;;;;;;;;22.24;59.72;100950.72;4434356;32;19930;-67
2022/08/25 05:13:50;;;;;;;;;;;;;;;22.25;59.61;100955.13;4437303;32;19918;-68
2022/08/25 05:16:19;;;;;;;;;;;;;;;22.28;59.19;100951.22;4435168;32;19977;-67
2022/08/25 05:18:45;;;;;;;;;;;;;;;22.28;59.37;100957.75;4435381;32;19930;-67
2022/08/25 05:21:14;;;;;;;;;;;;;;;22.35;59.23;100948.66;4439255;32;19985;-67
2022/08/25 05:23:45;;;;;;;;;;;;;;;22.34;59.44;100952.03;4440552;32;19926;-67
2022/08/25 05:26:13;;;;;;;;;;;;;;;22.27;59.36;100955.41;4427867;32;19960;-67
2022/08/25 05:28:40;;;;;;;;;;;;;;;22.22;59.18;100953.28;4434606;32;20049;-67
2022/08/25 05:31:07;;;;;;;;;;;;;;;22.33;58.87;100961.97;4436784;32;19962;-67
2022/08/25 05:33:34;;;;;;;;;;;;;;;22.36;58.56;100961.69;4438966;32;20033;-67
2022/08/25 05:36:00;;;;;;;;;;;;;;;22.34;58.28;100969.25;4439329;32;20017;-67
2022/08/25 05:38:26;;;;;;;;;;;;;;;22.35;58.08;100967.94;4438577;32;19925;-67
2022/08/25 05:40:56;;;;;;;;;;;;;;;21.96;58.90;100969.84;4436118;32;19953;-67
2022/08/25 05:43:21;;;;;;;;;;;;;;;22.12;58.54;100977.75;4437271;32;19999;-67
2022/08/25 05:45:48;;;;;;;;;;;;;;;22.02;58.44;100977.16;4433795;32;20008;-67
2022/08/25 05:48:15;;;;;;;;;;;;;;;22.12;58.92;100989.22;4433725;32;19922;-67
2022/08/25 05:50:41;;;;;;;;;;;;;;;21.83;60.07;100998.12;4434326;32;20012;-67
2022/08/25 05:53:07;;;;;;;;;;;;;;;21.94;60.02;100993.28;4434459;32;20835;-67
2022/08/25 05:55:33;;;;;;;;;;;;;;;21.76;60.65;100992.87;4439277;32;19941;-67
2022/08/25 05:57:59;;;;;;;;;;;;;;;21.86;60.75;100982.78;4436814;32;20018;-67
2022/08/25 06:00:24;;;;;;;;;;;;;;;21.89;60.57;100978.91;4434415;32;19926;-67
2022/08/25 06:02:50;;;;;;;;;;;;;;;22.02;60.12;100985.75;4435465;32;19957;-67
2022/08/25 06:05:17;;;;;;;;;;;;;;;22.12;59.86;100986.34;4434830;32;19933;-67
2022/08/25 06:07:44;;;;;;;;;;;;;;;22.06;59.79;100985.53;4443976;32;19949;-67
2022/08/25 06:10:11;;;;;;;;;;;;;;;21.93;60.11;100990.94;4442528;32;19958;-67
2022/08/25 06:12:37;;;;;;;;;;;;;;;22.08;59.43;100982.91;4439954;32;19954;-67
2022/08/25 06:15:03;;;;;;;;;;;;;;;22.02;59.65;100987.81;4425445;32;19933;-67
2022/08/25 06:17:29;;;;;;;;;;;;;;;22.27;59.04;100993.44;4439516;32;20074;-67
2022/08/25 06:19:56;;;;;;;;;;;;;;;22.22;58.82;100999.97;4433067;32;19938;-67
2022/08/25 06:22:24;;;;;;;;;;;;;;;22.19;59.36;100985.84;4425833;32;19932;-67
2022/08/25 06:24:53;;;;;;;;;;;;;;;22.30;58.87;100986.69;4429088;32;20317;-67
2022/08/25 06:27:19;;;;;;;;;;;;;;;22.22;58.78;100988.50;4428455;32;20207;-67
2022/08/25 06:29:44;;;;;;;;;;;;;;;22.39;57.83;100985.69;4426893;32;19926;-67
2022/08/25 06:32:10;;;;;;;;;;;;;;;22.45;57.93;100987.28;4423539;32;19970;-67
2022/08/25 06:34:35;;;;;;;;;;;;;;;22.52;57.76;100994.66;4424325;32;19963;-67
2022/08/25 06:37:01;;;;;;;;;;;;;;;22.53;57.98;100990.47;4425219;32;19930;-66
2022/08/25 06:39:26;;;;;;;;;;;;;;;22.28;58.09;101000.78;4425631;32;19962;-68
2022/08/25 06:41:53;;;;;;;;;;;;;;;22.36;58.34;100995.34;4426138;32;19984;-69
2022/08/25 06:44:19;;;;;;;;;;;;;;;22.33;58.27;100988.53;4423120;32;19997;-68
2022/08/25 06:46:44;;;;;;;;;;;;;;;22.53;57.85;100990.47;4422317;32;19969;-69
2022/08/25 06:49:10;;;;;;;;;;;;;;;22.27;57.25;100987.72;4416865;32;19989;-67
2022/08/25 06:51:35;;;;;;;;;;;;;;;22.28;57.29;100989.31;4422210;32;19977;-67
2022/08/25 06:54:01;;;;;;;;;;;;;;;22.26;56.74;100986.16;4422336;32;19969;-68
2022/08/25 06:56:26;;;;;;;;;;;;;;;22.23;56.77;100986.37;4421666;32;19958;-67
2022/08/25 06:58:52;;;;;;;;;;;;;;;21.93;57.25;100991.69;4417468;32;20005;-67
2022/08/25 07:01:20;;;;;;;;;;;;;;;22.18;57.21;100998.63;4417826;32;19946;-68
2022/08/25 07:03:47;;;;;;;;;;;;;;;22.32;57.17;100994.78;4420649;32;19979;-68
2022/08/25 07:06:12;;;;;;;;;;;;;;;22.26;57.01;100996.84;4421343;32;19991;-68
2022/08/25 07:08:38;;;;;;;;;;;;;;;22.33;56.27;101002.09;4425017;32;20317;-68
2022/08/25 07:11:04;;;;;;;;;;;;;;;22.30;55.65;101006.00;4421793;32;19993;-68
2022/08/25 07:13:30;;;;;;;;;;;;;;;22.50;55.08;101002.97;4422258;32;20513;-68
2022/08/25 07:15:56;;;;;;;;;;;;;;;22.42;54.95;101004.72;4418929;32;19999;-68
2022/08/25 07:18:22;;;;;;;;;;;;;;;22.60;54.38;101005.09;4419999;32;20052;-69
2022/08/25 07:20:48;;;;;;;;;;;;;;;22.57;54.54;101005.34;4417227;32;19978;-68
2022/08/25 07:23:13;;;;;;;;;;;;;;;22.76;54.18;101010.13;4420292;32;19997;-68
2022/08/25 07:25:39;;;;;;;;;;;;;;;22.77;53.90;101002.31;4418933;32;20433;-68
2022/08/25 07:28:04;;;;;;;;;;;;;;;22.96;53.57;101014.88;4418152;32;19957;-67
2022/08/25 07:30:30;;;;;;;;;;;;;;;23.09;53.42;101015.16;4417513;32;20011;-67
2022/08/25 07:32:56;;;;;;;;;;;;;;;23.04;52.82;101018.81;4418154;32;19968;-67
2022/08/25 07:35:24;;;;;;;;;;;;;;;22.58;54.08;101012.66;4417454;32;20280;-68
2022/08/25 07:37:50;;;;;;;;;;;;;;;22.85;53.27;101012.75;4417159;32;20388;-68
2022/08/25 07:40:19;;;;;;;;;;;;;;;22.90;53.47;101025.56;4416912;32;19941;-68
2022/08/25 07:42:45;;;;;;;;;;;;;;;23.02;53.91;101024.28;4414930;32;19962;-68
2022/08/25 07:45:11;;;;;;;;;;;;;;;23.07;54.25;101020.66;4416806;32;20021;-68
2022/08/25 07:47:37;;;;;;;;;;;;;;;22.99;54.96;101022.47;4413773;32;19989;-68
2022/08/25 07:50:04;;;;;;;;;;;;;;;22.78;55.49;101013.28;4410233;32;20012;-68
2022/08/25 07:52:29;;;;;;;;;;;;;;;22.76;56.03;101012.19;4411504;32;19972;-67
2022/08/25 07:54:57;;;;;;;;;;;;;;;22.51;55.99;101004.53;4410950;32;19976;-68
2022/08/25 07:57:25;;;;;;;;;;;;;;;22.47;55.38;101019.13;4414339;32;19964;-68
2022/08/25 07:59:50;;;;;;;;;;;;;;;22.46;57.56;101020.37;4413155;32;19945;-68
2022/08/25 08:02:16;;;;;;;;;;;;;;;22.11;57.91;101019.94;4411929;32;20037;-68
2022/08/25 08:04:42;;;;;;;;;;;;;;;22.03;58.28;101024.56;4409199;32;19995;-68
2022/08/25 08:07:08;;;;;;;;;;;;;;;22.03;59.20;101024.56;4405297;32;19950;-68
2022/08/25 08:09:33;;;;;;;;;;;;;;;21.82;59.93;101020.28;4405015;32;19963;-68
2022/08/25 08:11:59;;;;;;;;;;;;;;;21.75;60.41;101023.59;4406305;32;20043;-67
2022/08/25 08:14:25;;;;;;;;;;;;;;;21.75;60.44;101025.69;4403387;32;19973;-69
2022/08/25 08:16:50;;;;;;;;;;;;;;;21.51;61.13;101021.03;4404679;32;19989;-67
2022/08/25 08:19:16;;;;;;;;;;;;;;;21.58;61.54;101014.88;4403239;32;19969;-69
2022/08/25 08:21:42;;;;;;;;;;;;;;;21.67;61.23;101016.75;4416228;32;19993;-68
2022/08/25 08:24:08;;;;;;;;;;;;;;;21.66;60.41;101020.88;4417188;32;19962;-69
2022/08/25 08:26:33;;;;;;;;;;;;;;;21.65;59.13;101025.06;4415282;32;19989;-69
2022/08/25 08:28:59;;;;;;;;;;;;;;;21.64;59.22;101037.81;4414039;32;20043;-69
2022/08/25 08:31:28;;;;;;;;;;;;;;;21.59;62.46;101039.34;4415351;32;20039;-69
2022/08/25 08:33:54;;;;;;;;;;;;;;;21.63;62.63;101039.12;4416998;32;19953;-69
2022/08/25 08:36:20;;;;;;;;;;;;;;;21.46;62.71;101038.16;4417219;32;19969;-69
2022/08/25 08:38:46;;;;;;;;;;;;;;;21.47;63.62;101034.78;4413615;32;19997;-69
2022/08/25 08:43:53;;;;;;;;;;;;;;;21.69;61.57;101042.78;3951422;32;15722657;-68
2022/08/25 08:46:20;;;;;;;;;;;;;;;21.69;61.57;101042.78;4427874;32;20273;-69
2022/08/25 08:51:25;;;;;;;;;;;;;;;21.70;62.83;101036.53;3950885;32;15734703;-68
2022/08/25 08:53:55;;;;;;;;;;;;;;;21.70;62.83;101036.53;4426214;32;20366;-68
2022/08/25 08:59:04;;;;;;;;;;;;;;;21.71;64.31;101045.94;3970548;31;15717626;-68
2022/08/25 09:01:33;;;;;;;;;;;;;;;21.71;64.31;101045.94;4455404;32;19952;-68
2022/08/25 09:04:01;;;;;;;;;;;;;;;21.23;63.75;101042.12;4457858;32;19985;-68
2022/08/25 09:06:43;;;;;;;;;;;;;;;21.09;65.03;101040.13;4458717;32;20363;-68
2022/08/25 09:09:11;;;;;;;;;;;;;;;21.04;65.47;101032.28;4455127;32;19956;-68
2022/08/25 09:27:26;;;;;;;;;;;;;;;21.17;66.06;101062.09;3951030;32;15723571;-68
2022/08/25 09:30:09;;;;;;;;;;;;;;;21.17;66.06;101062.09;4431510;32;19953;-68
2022/08/25 09:32:38;;;;;;;;;;;;;;;20.74;66.97;101062.34;4427225;32;19980;-68
2022/08/25 09:35:05;;;;;;;;;;;;;;;20.57;64.18;101070.69;4430542;32;19988;-68
2022/08/25 09:37:31;;;;;;;;;;;;;;;20.30;65.02;101065.38;4429587;32;19998;-68
2022/08/25 09:39:56;;;;;;;;;;;;;;;20.09;65.76;101065.81;4428837;32;19961;-68
2022/08/25 09:42:41;;;;;;;;;;;;;;;19.98;67.12;101062.78;4429057;32;19965;-67
2022/08/25 09:45:10;;;;;;;;;;;;;;;20.04;68.06;101061.59;4426119;32;20631;-68
2022/08/25 09:47:41;;;;;;;;;;;;;;;20.09;69.70;101072.31;4426551;32;19968;-68
2022/08/25 09:50:13;;;;;;;;;;;;;;;20.16;70.33;101063.38;4428392;32;20052;-68
2022/08/25 09:52:41;;;;;;;;;;;;;;;20.04;71.30;101063.66;4429382;32;20394;-68
2022/08/25 10:00:24;;;;;;;;;;;;;;;20.74;70.70;101050.91;3950874;32;15724324;-67
2022/08/25 10:03:09;;;;;;;;;;;;;;;20.74;70.70;101050.91;4426955;32;20001;-68
2022/08/25 10:05:38;;;;;;;;;;;;;;;20.23;70.73;101042.94;4426140;32;19971;-68
2022/08/25 10:08:11;;;;;;;;;;;;;;;20.11;70.23;101044.03;4427055;32;20032;-68
2022/08/25 10:10:43;;;;;;;;;;;;;;;20.08;70.88;101045.03;4427047;32;19961;-68
2022/08/25 10:13:13;;;;;;;;;;;;;;;20.13;71.40;101038.66;4428305;32;19982;-68
2022/08/25 10:15:39;;;;;;;;;;;;;;;20.13;70.93;101032.12;4429737;32;20035;-68
2022/08/25 10:18:24;;;;;;;;;;;;;;;20.11;71.69;101029.75;4425270;32;20856;-68
2022/08/25 10:23:44;;;;;;;;;;;;;;;20.65;69.64;101028.16;3952319;32;15724564;-69
2022/08/25 10:26:18;;;;;;;;;;;;;;;20.65;69.64;101028.16;4427381;32;20522;-68
2022/08/25 10:31:33;;;;;;;;;;;;;;;20.49;71.10;101028.75;3949374;32;15722409;-68
2022/08/25 10:34:07;;;;;;;;;;;;;;;20.48;71.14;101027.94;4428481;32;20225;-68
2022/08/25 10:39:24;;;;;;;;;;;;;;;20.80;70.44;101021.06;3936537;32;15726567;-68
2022/08/25 10:49:49;;;;;;;;;;;;;;;21.43;68.11;101011.34;3948164;32;15727232;-68
2022/08/25 11:00:14;;;;;;;;;;;;;;;22.13;67.57;100994.44;3949793;32;15723616;-68
2022/08/25 11:03:00;;;;;;;;;;;;;;;22.13;67.57;100994.44;4426474;32;20386;-68
2022/08/25 11:05:29;;;;;;;;;;;;;;;21.95;67.70;100991.97;4425675;32;19958;-68
2022/08/25 11:08:03;;;;;;;;;;;;;;;22.05;67.09;101004.78;4426531;32;19965;-68
2022/08/25 11:10:49;;;;;;;;;;;;;;;22.16;67.01;101009.81;4427733;32;20296;-68
2022/08/25 11:13:19;;;;;;;;;;;;;;;22.08;66.13;101000.13;4429361;32;19985;-68
2022/08/25 11:15:57;;;;;;;;;;;;;;;22.17;65.75;101006.44;4426805;32;20004;-68
2022/08/25 11:18:24;;;;;;;;;;;;;;;22.16;64.86;100995.47;4425716;32;20371;-68
2022/08/25 11:26:06;;;;;;;;;;;;;;;23.16;61.07;101011.78;3943465;32;15724594;-69
2022/08/25 11:28:38;;;;;;;;;;;;;;;23.16;61.07;101011.78;4412056;32;19985;-69
2022/08/25 11:31:04;;;;;;;;;;;;;;;22.78;61.37;101007.53;4410497;32;19989;-69
2022/08/25 11:33:29;;;;;;;;;;;;;;;22.68;62.72;101006.19;4409206;32;19996;-69
2022/08/25 11:35:57;;;;;;;;;;;;;;;22.73;61.87;101008.28;4409173;32;19962;-69
2022/08/25 11:41:04;;;;;;;;;;;;;;;23.13;61.82;101001.34;3949701;32;15721652;-67
2022/08/25 11:43:49;;;;;;;;;;;;;;;23.13;61.82;101001.34;4426741;32;20393;-68
2022/08/25 11:51:34;;;;;;;;;;;;;;;23.37;59.55;101004.53;3950292;32;15724592;-68
2022/08/25 11:56:49;;;;;;;;;;;;;;;23.55;59.91;101001.16;3952078;32;15725633;-69
2022/08/25 11:59:34;;;;;;;;;;;;;;;23.55;59.91;101001.16;4427095;32;20396;-69
2022/08/25 12:02:00;;;;;;;;;;;;;;;22.85;60.35;100989.00;4426768;32;20012;-69
2022/08/25 12:12:28;;;;;;;;;;;;;;;23.21;61.33;101029.03;3961219;31;15717518;-69
2022/08/25 12:14:53;;;;;;;;;;;;;;;23.21;61.33;101029.03;4444605;32;20017;-69
2022/08/25 12:17:21;;;;;;;;;;;;;;;22.79;61.77;101025.50;4444783;32;20408;-68
2022/08/25 12:19:49;;;;;;;;;;;;;;;22.75;62.76;101019.25;4441975;32;19968;-68
2022/08/25 12:25:05;;;;;;;;;;;;;;;22.66;64.73;101013.72;3953050;32;15725450;-70
2022/08/25 12:30:19;;;;;;;;;;;;;;;22.81;62.63;101002.84;3968780;31;15718441;-69
2022/08/25 12:33:04;;;;;;;;;;;;;;;22.73;62.85;101013.25;4446350;32;20292;-69
2022/08/25 12:35:31;;;;;;;;;;;;;;;22.54;62.39;101012.91;4446155;32;19972;-69
2022/08/25 12:38:07;;;;;;;;;;;;;;;22.45;63.33;101021.69;4446417;32;19961;-69
2022/08/25 12:45:47;;;;;;;;;;;;;;;22.48;60.50;101022.75;3904867;32;15724353;-69
2022/08/25 12:53:45;;;;;;;;;;;;;;;23.14;58.64;101025.88;3957627;32;15724584;-68
2022/08/25 13:01:51;;;;;;;;;;;;;;;23.27;59.22;101037.69;3949573;32;15726660;-68
2022/08/25 13:04:36;;;;;;;;;;;;;;;23.27;59.22;101037.69;4424614;32;20021;-68
2022/08/25 13:07:11;;;;;;;;;;;;;;;22.98;60.96;101036.00;4428536;32;20017;-67
2022/08/25 13:12:20;;;;;;;;;;;;;;;22.77;59.09;101028.12;3950663;32;15724505;-70
2022/08/25 13:14:51;;;;;;;;;;;;;;;22.77;59.09;101028.12;4427089;32;20475;-67
2022/08/25 13:17:25;;;;;;;;;;;;;;;22.27;61.99;101041.44;4419641;32;19968;-67
2022/08/25 13:19:50;;;;;;;;;;;;;;;22.14;62.82;101041.06;4420318;32;20011;-70
2022/08/25 13:22:17;;;;;;;;;;;;;;;22.22;61.73;101033.56;4425686;32;20336;-67
2022/08/25 13:24:44;;;;;;;;;;;;;;;22.30;62.35;101043.28;4422652;32;20027;-70
2022/08/25 13:27:18;;;;;;;;;;;;;;;22.40;62.83;101047.50;4424535;32;19997;-70
2022/08/25 13:29:53;;;;;;;;;;;;;;;22.60;62.88;101045.28;4421727;32;20007;-68
2022/08/25 13:32:28;;;;;;;;;;;;;;;22.67;62.66;101055.50;4421625;32;20000;-68
2022/08/25 13:35:05;;;;;;;;;;;;;;;22.72;62.42;101052.62;4424727;32;20012;-68
2022/08/25 13:37:32;;;;;;;;;;;;;;;22.75;60.56;101056.53;4427676;32;20041;-68
2022/08/25 13:42:50;;;;;;;;;;;;;;;23.13;59.04;101061.63;3951592;32;15724418;-69
2022/08/25 13:45:18;;;;;;;;;;;;;;;23.06;57.38;101071.53;4427182;32;19983;-69
2022/08/25 13:47:44;;;;;;;;;;;;;;;23.44;56.59;101067.22;4423603;32;20006;-68
2022/08/25 13:50:19;;;;;;;;;;;;;;;23.59;57.44;101073.50;4426067;32;19981;-69
2022/08/25 13:52:47;;;;;;;;;;;;;;;23.34;56.36;101071.63;4429555;32;20110;-69
2022/08/25 13:55:18;;;;;;;;;;;;;;;24.00;56.40;101060.22;4426418;32;19958;-69
2022/08/25 13:57:44;;;;;;;;;;;;;;;24.80;54.91;101053.22;4427338;32;19997;-69
2022/08/25 14:00:10;;;;;;;;;;;;;;;25.15;52.16;101067.72;4424152;32;19976;-69
2022/08/25 14:05:16;;;;;;;;;;;;;;;27.00;48.92;101084.44;3951523;32;15722540;-69
2022/08/25 14:07:51;;;;;;;;;;;;;;;27.00;48.92;101084.44;4433050;32;20009;-68
2022/08/25 14:10:36;;;;;;;;;;;;;;;26.92;47.96;101080.59;4431474;32;20653;-69
2022/08/25 14:13:21;;;;;;;;;;;;;;;27.65;45.91;101073.25;4434921;32;19996;-68
2022/08/25 14:15:47;;;;;;;;;;;;;;;28.12;44.14;101068.53;4434992;32;20001;-68
2022/08/25 14:18:17;;;;;;;;;;;;;;;28.00;42.42;101077.94;4432814;32;20004;-69
2022/08/25 14:20:44;;;;;;;;;;;;;;;27.79;40.72;101076.97;4434497;32;19999;-69
2022/08/25 14:23:13;;;;;;;;;;;;;;;27.70;41.97;101080.28;4436237;32;19971;-69
2022/08/25 14:25:40;;;;;;;;;;;;;;;27.28;42.96;101055.97;4433496;32;19993;-67
2022/08/25 14:28:08;;;;;;;;;;;;;;;27.84;40.81;101064.53;4434465;32;21404;-69
2022/08/25 14:30:35;;;;;;;;;;;;;;;28.26;38.74;101070.09;4433652;32;20385;-69
2022/08/25 14:33:02;;;;;;;;;;;;;;;28.69;38.84;101067.69;4433075;32;20264;-70